sensor_id;sensor_type;location;lat;lon;timestamp;temperature;humidity
44643;DHT22;33930;-34.276;150.954;2022-12-20T00:01:18;27.60;89.60
44643;DHT22;33930;-34.276;150.954;2022-12-20T00:03:47;28.20;85.90
44643;DHT22;33930;-34.276;150.954;2022-12-20T00:06:15;28.70;85.80
44643;DHT22;33930;-34.276;150.954;2022-12-20T00:08:43;29.10;85.30
44643;DHT22;33930;-34.276;150.954;2022-12-20T00:11:11;29.50;84.80
44643;DHT22;33930;-34.276;150.954;2022-12-20T00:13:39;29.60;84.80
44643;DHT22;33930;-34.276;150.954;2022-12-20T00:16:14;30.20;85.10
44643;DHT22;33930;-34.276;150.954;2022-12-20T00:18:43;30.70;83.40
44643;DHT22;33930;-34.276;150.954;2022-12-20T00:21:12;30.90;81.10
44643;DHT22;33930;-34.276;150.954;2022-12-20T00:23:40;30.70;84.00
44643;DHT22;33930;-34.276;150.954;2022-12-20T00:26:11;30.90;83.50
44643;DHT22;33930;-34.276;150.954;2022-12-20T00:28:39;31.20;82.50
44643;DHT22;33930;-34.276;150.954;2022-12-20T00:31:08;31.50;82.80
44643;DHT22;33930;-34.276;150.954;2022-12-20T00:33:38;31.60;81.80
44643;DHT22;33930;-34.276;150.954;2022-12-20T00:36:06;31.60;82.30
44643;DHT22;33930;-34.276;150.954;2022-12-20T00:38:34;31.20;83.50
44643;DHT22;33930;-34.276;150.954;2022-12-20T00:41:11;30.90;83.00
44643;DHT22;33930;-34.276;150.954;2022-12-20T00:43:39;30.40;84.00
44643;DHT22;33930;-34.276;150.954;2022-12-20T00:46:08;29.90;85.50
44643;DHT22;33930;-34.276;150.954;2022-12-20T00:48:36;29.30;83.60
44643;DHT22;33930;-34.276;150.954;2022-12-20T00:51:06;28.70;85.00
44643;DHT22;33930;-34.276;150.954;2022-12-20T00:53:34;27.90;88.80
44643;DHT22;33930;-34.276;150.954;2022-12-20T00:56:03;27.40;89.70
44643;DHT22;33930;-34.276;150.954;2022-12-20T00:58:32;27.20;90.30
44643;DHT22;33930;-34.276;150.954;2022-12-20T01:01:00;27.20;89.20
44643;DHT22;33930;-34.276;150.954;2022-12-20T01:03:27;27.10;86.70
44643;DHT22;33930;-34.276;150.954;2022-12-20T01:05:57;26.90;89.70
44643;DHT22;33930;-34.276;150.954;2022-12-20T01:08:26;26.90;91.00
44643;DHT22;33930;-34.276;150.954;2022-12-20T01:11:06;26.80;91.10
44643;DHT22;33930;-34.276;150.954;2022-12-20T01:13:36;26.60;90.20
44643;DHT22;33930;-34.276;150.954;2022-12-20T01:16:13;26.50;91.40
44643;DHT22;33930;-34.276;150.954;2022-12-20T01:18:41;26.60;91.60
44643;DHT22;33930;-34.276;150.954;2022-12-20T01:21:10;26.60;91.60
44643;DHT22;33930;-34.276;150.954;2022-12-20T01:23:39;26.60;91.30
44643;DHT22;33930;-34.276;150.954;2022-12-20T01:26:10;26.60;91.30
44643;DHT22;33930;-34.276;150.954;2022-12-20T01:28:40;26.60;91.60
44643;DHT22;33930;-34.276;150.954;2022-12-20T01:31:10;26.60;89.30
44643;DHT22;33930;-34.276;150.954;2022-12-20T01:33:38;26.40;91.90
44643;DHT22;33930;-34.276;150.954;2022-12-20T01:36:09;26.40;91.80
44643;DHT22;33930;-34.276;150.954;2022-12-20T01:38:37;26.30;91.80
44643;DHT22;33930;-34.276;150.954;2022-12-20T01:41:05;26.50;91.90
44643;DHT22;33930;-34.276;150.954;2022-12-20T01:43:47;26.60;91.00
44643;DHT22;33930;-34.276;150.954;2022-12-20T01:46:15;26.50;89.00
44643;DHT22;33930;-34.276;150.954;2022-12-20T01:48:51;26.40;90.90
44643;DHT22;33930;-34.276;150.954;2022-12-20T01:51:21;26.10;90.50
44643;DHT22;33930;-34.276;150.954;2022-12-20T01:53:51;25.80;90.40
44643;DHT22;33930;-34.276;150.954;2022-12-20T01:56:20;25.80;91.30
44643;DHT22;33930;-34.276;150.954;2022-12-20T01:58:50;25.80;92.40
44643;DHT22;33930;-34.276;150.954;2022-12-20T02:01:21;25.70;91.20
44643;DHT22;33930;-34.276;150.954;2022-12-20T02:03:50;25.50;90.10
44643;DHT22;33930;-34.276;150.954;2022-12-20T02:06:21;25.30;91.50
44643;DHT22;33930;-34.276;150.954;2022-12-20T02:08:50;25.20;92.80
44643;DHT22;33930;-34.276;150.954;2022-12-20T02:28:24;25.40;92.60
44643;DHT22;33930;-34.276;150.954;2022-12-20T02:30:54;25.30;90.70
44643;DHT22;33930;-34.276;150.954;2022-12-20T02:33:24;24.90;91.00
44643;DHT22;33930;-34.276;150.954;2022-12-20T02:35:53;24.70;93.70
44643;DHT22;33930;-34.276;150.954;2022-12-20T02:38:27;24.70;93.20
44643;DHT22;33930;-34.276;150.954;2022-12-20T02:43:36;24.70;93.30
44643;DHT22;33930;-34.276;150.954;2022-12-20T02:46:23;24.60;90.90
44643;DHT22;33930;-34.276;150.954;2022-12-20T02:48:54;24.40;91.80
44643;DHT22;33930;-34.276;150.954;2022-12-20T02:51:23;24.00;93.40
44643;DHT22;33930;-34.276;150.954;2022-12-20T02:53:52;24.00;93.90
44643;DHT22;33930;-34.276;150.954;2022-12-20T02:56:32;23.90;93.00
44643;DHT22;33930;-34.276;150.954;2022-12-20T02:59:11;23.70;93.00
44643;DHT22;33930;-34.276;150.954;2022-12-20T03:01:54;23.70;94.20
44643;DHT22;33930;-34.276;150.954;2022-12-20T03:04:27;23.80;93.20
44643;DHT22;33930;-34.276;150.954;2022-12-20T03:07:03;23.60;91.80
44643;DHT22;33930;-34.276;150.954;2022-12-20T03:09:33;23.30;93.20
44643;DHT22;33930;-34.276;150.954;2022-12-20T03:12:01;23.10;92.50
44643;DHT22;33930;-34.276;150.954;2022-12-20T03:14:29;22.80;94.30
44643;DHT22;33930;-34.276;150.954;2022-12-20T03:16:56;22.80;94.90
44643;DHT22;33930;-34.276;150.954;2022-12-20T03:19:24;22.70;93.70
44643;DHT22;33930;-34.276;150.954;2022-12-20T03:21:51;22.50;95.10
44643;DHT22;33930;-34.276;150.954;2022-12-20T03:24:18;22.60;96.40
44643;DHT22;33930;-34.276;150.954;2022-12-20T03:26:46;22.60;96.10
44643;DHT22;33930;-34.276;150.954;2022-12-20T03:29:13;22.70;95.90
44643;DHT22;33930;-34.276;150.954;2022-12-20T03:31:41;22.70;94.50
44643;DHT22;33930;-34.276;150.954;2022-12-20T03:34:08;22.60;95.90
44643;DHT22;33930;-34.276;150.954;2022-12-20T03:36:35;22.70;96.70
44643;DHT22;33930;-34.276;150.954;2022-12-20T03:39:03;22.90;96.60
44643;DHT22;33930;-34.276;150.954;2022-12-20T03:41:30;23.00;96.50
44643;DHT22;33930;-34.276;150.954;2022-12-20T03:43:57;23.10;96.20
44643;DHT22;33930;-34.276;150.954;2022-12-20T03:46:25;23.10;95.80
44643;DHT22;33930;-34.276;150.954;2022-12-20T03:48:53;23.10;95.90
44643;DHT22;33930;-34.276;150.954;2022-12-20T03:51:20;23.10;96.50
44643;DHT22;33930;-34.276;150.954;2022-12-20T03:53:47;23.00;95.90
44643;DHT22;33930;-34.276;150.954;2022-12-20T03:56:15;22.80;94.90
44643;DHT22;33930;-34.276;150.954;2022-12-20T03:58:42;22.80;96.00
44643;DHT22;33930;-34.276;150.954;2022-12-20T04:01:25;22.70;95.40
44643;DHT22;33930;-34.276;150.954;2022-12-20T04:03:52;22.70;96.70
44643;DHT22;33930;-34.276;150.954;2022-12-20T04:06:21;22.80;97.40
44643;DHT22;33930;-34.276;150.954;2022-12-20T04:08:49;22.80;96.30
44643;DHT22;33930;-34.276;150.954;2022-12-20T04:11:16;22.80;96.40
44643;DHT22;33930;-34.276;150.954;2022-12-20T04:13:48;22.80;97.00
44643;DHT22;33930;-34.276;150.954;2022-12-20T04:16:18;23.00;96.50
44643;DHT22;33930;-34.276;150.954;2022-12-20T04:18:45;23.10;95.70
44643;DHT22;33930;-34.276;150.954;2022-12-20T04:21:13;23.00;95.70
44643;DHT22;33930;-34.276;150.954;2022-12-20T04:23:42;23.00;96.70
44643;DHT22;33930;-34.276;150.954;2022-12-20T04:26:10;22.80;95.80
44643;DHT22;33930;-34.276;150.954;2022-12-20T04:28:38;22.40;97.90
44643;DHT22;33930;-34.276;150.954;2022-12-20T04:31:06;22.00;99.10
44643;DHT22;33930;-34.276;150.954;2022-12-20T04:33:33;21.70;99.50
44643;DHT22;33930;-34.276;150.954;2022-12-20T04:36:00;21.60;99.90
44643;DHT22;33930;-34.276;150.954;2022-12-20T04:38:28;21.20;99.90
44643;DHT22;33930;-34.276;150.954;2022-12-20T04:40:55;20.80;99.90
44643;DHT22;33930;-34.276;150.954;2022-12-20T04:43:23;20.60;99.90
44643;DHT22;33930;-34.276;150.954;2022-12-20T04:45:52;20.40;99.90
44643;DHT22;33930;-34.276;150.954;2022-12-20T04:48:23;20.30;99.90
44643;DHT22;33930;-34.276;150.954;2022-12-20T04:50:55;20.30;99.90
44643;DHT22;33930;-34.276;150.954;2022-12-20T04:53:22;20.20;99.90
44643;DHT22;33930;-34.276;150.954;2022-12-20T04:56:08;20.20;99.90
44643;DHT22;33930;-34.276;150.954;2022-12-20T04:58:35;20.00;99.90
44643;DHT22;33930;-34.276;150.954;2022-12-20T05:01:06;20.10;99.90
44643;DHT22;33930;-34.276;150.954;2022-12-20T05:03:33;20.00;99.90
44643;DHT22;33930;-34.276;150.954;2022-12-20T05:06:01;20.10;99.90
44643;DHT22;33930;-34.276;150.954;2022-12-20T05:08:28;20.20;99.90
44643;DHT22;33930;-34.276;150.954;2022-12-20T05:10:55;20.30;99.90
44643;DHT22;33930;-34.276;150.954;2022-12-20T05:13:23;20.30;99.90
44643;DHT22;33930;-34.276;150.954;2022-12-20T05:15:52;20.30;99.90
44643;DHT22;33930;-34.276;150.954;2022-12-20T05:18:19;20.40;99.90
44643;DHT22;33930;-34.276;150.954;2022-12-20T05:20:47;20.30;99.90
44643;DHT22;33930;-34.276;150.954;2022-12-20T05:23:34;20.40;99.90
44643;DHT22;33930;-34.276;150.954;2022-12-20T05:26:19;20.50;99.90
44643;DHT22;33930;-34.276;150.954;2022-12-20T05:28:47;20.30;99.90
44643;DHT22;33930;-34.276;150.954;2022-12-20T05:31:15;20.20;99.90
44643;DHT22;33930;-34.276;150.954;2022-12-20T05:33:42;20.20;99.90
44643;DHT22;33930;-34.276;150.954;2022-12-20T05:36:09;20.30;99.90
44643;DHT22;33930;-34.276;150.954;2022-12-20T05:38:37;20.50;99.90
44643;DHT22;33930;-34.276;150.954;2022-12-20T05:41:04;20.60;99.90
44643;DHT22;33930;-34.276;150.954;2022-12-20T05:43:32;20.70;99.90
44643;DHT22;33930;-34.276;150.954;2022-12-20T05:45:59;20.70;99.90
44643;DHT22;33930;-34.276;150.954;2022-12-20T05:48:27;20.70;99.90
44643;DHT22;33930;-34.276;150.954;2022-12-20T05:50:54;20.70;99.90
44643;DHT22;33930;-34.276;150.954;2022-12-20T05:53:21;20.70;99.90
44643;DHT22;33930;-34.276;150.954;2022-12-20T05:55:50;20.70;99.90
44643;DHT22;33930;-34.276;150.954;2022-12-20T05:58:18;20.70;99.90
44643;DHT22;33930;-34.276;150.954;2022-12-20T06:00:46;20.50;99.90
44643;DHT22;33930;-34.276;150.954;2022-12-20T06:03:14;20.40;99.90
44643;DHT22;33930;-34.276;150.954;2022-12-20T06:05:42;20.40;99.90
44643;DHT22;33930;-34.276;150.954;2022-12-20T06:08:11;20.30;99.90
44643;DHT22;33930;-34.276;150.954;2022-12-20T06:10:40;20.20;99.90
44643;DHT22;33930;-34.276;150.954;2022-12-20T06:13:08;20.30;99.90
44643;DHT22;33930;-34.276;150.954;2022-12-20T06:15:36;20.20;99.90
44643;DHT22;33930;-34.276;150.954;2022-12-20T06:18:04;20.10;99.90
44643;DHT22;33930;-34.276;150.954;2022-12-20T06:20:33;20.00;99.90
44643;DHT22;33930;-34.276;150.954;2022-12-20T06:23:00;19.90;99.90
44643;DHT22;33930;-34.276;150.954;2022-12-20T06:25:28;19.90;99.90
44643;DHT22;33930;-34.276;150.954;2022-12-20T06:27:56;19.90;99.90
44643;DHT22;33930;-34.276;150.954;2022-12-20T06:30:23;19.80;99.90
44643;DHT22;33930;-34.276;150.954;2022-12-20T06:32:50;19.80;99.80
44643;DHT22;33930;-34.276;150.954;2022-12-20T06:35:18;19.70;99.30
44643;DHT22;33930;-34.276;150.954;2022-12-20T06:37:45;19.60;99.90
44643;DHT22;33930;-34.276;150.954;2022-12-20T06:40:13;19.60;99.90
44643;DHT22;33930;-34.276;150.954;2022-12-20T06:42:40;19.50;99.90
44643;DHT22;33930;-34.276;150.954;2022-12-20T06:45:08;19.40;99.90
44643;DHT22;33930;-34.276;150.954;2022-12-20T06:47:36;19.40;99.90
44643;DHT22;33930;-34.276;150.954;2022-12-20T06:50:04;19.40;99.80
44643;DHT22;33930;-34.276;150.954;2022-12-20T06:52:31;19.40;99.90
44643;DHT22;33930;-34.276;150.954;2022-12-20T06:54:59;19.30;99.90
44643;DHT22;33930;-34.276;150.954;2022-12-20T06:57:26;19.40;99.90
44643;DHT22;33930;-34.276;150.954;2022-12-20T06:59:53;19.30;99.90
44643;DHT22;33930;-34.276;150.954;2022-12-20T07:02:20;19.30;99.90
44643;DHT22;33930;-34.276;150.954;2022-12-20T07:04:48;19.20;99.90
44643;DHT22;33930;-34.276;150.954;2022-12-20T07:07:16;19.20;99.90
44643;DHT22;33930;-34.276;150.954;2022-12-20T07:09:43;19.10;99.90
44643;DHT22;33930;-34.276;150.954;2022-12-20T07:12:11;19.00;99.90
44643;DHT22;33930;-34.276;150.954;2022-12-20T07:14:38;19.00;99.90
44643;DHT22;33930;-34.276;150.954;2022-12-20T07:17:05;18.90;99.90
44643;DHT22;33930;-34.276;150.954;2022-12-20T07:19:34;18.90;99.90
44643;DHT22;33930;-34.276;150.954;2022-12-20T07:22:02;18.90;99.90
44643;DHT22;33930;-34.276;150.954;2022-12-20T07:24:31;18.80;99.90
44643;DHT22;33930;-34.276;150.954;2022-12-20T07:26:59;18.80;99.90
44643;DHT22;33930;-34.276;150.954;2022-12-20T07:29:27;18.80;99.90
44643;DHT22;33930;-34.276;150.954;2022-12-20T07:31:55;18.70;99.90
44643;DHT22;33930;-34.276;150.954;2022-12-20T07:34:22;18.70;99.90
44643;DHT22;33930;-34.276;150.954;2022-12-20T07:36:49;18.60;99.90
44643;DHT22;33930;-34.276;150.954;2022-12-20T07:39:17;18.60;99.90
44643;DHT22;33930;-34.276;150.954;2022-12-20T07:41:44;18.50;99.90
44643;DHT22;33930;-34.276;150.954;2022-12-20T07:44:12;18.40;99.90
44643;DHT22;33930;-34.276;150.954;2022-12-20T07:46:39;18.40;99.90
44643;DHT22;33930;-34.276;150.954;2022-12-20T07:49:07;18.40;99.90
44643;DHT22;33930;-34.276;150.954;2022-12-20T07:51:38;18.30;99.90
44643;DHT22;33930;-34.276;150.954;2022-12-20T07:54:14;18.30;99.90
44643;DHT22;33930;-34.276;150.954;2022-12-20T07:56:46;18.30;99.90
44643;DHT22;33930;-34.276;150.954;2022-12-20T07:59:20;18.30;99.90
44643;DHT22;33930;-34.276;150.954;2022-12-20T08:01:48;18.20;99.90
44643;DHT22;33930;-34.276;150.954;2022-12-20T08:04:20;18.20;99.90
44643;DHT22;33930;-34.276;150.954;2022-12-20T08:06:48;18.10;99.90
44643;DHT22;33930;-34.276;150.954;2022-12-20T08:09:16;18.00;99.90
44643;DHT22;33930;-34.276;150.954;2022-12-20T08:11:46;18.00;99.90
44643;DHT22;33930;-34.276;150.954;2022-12-20T08:14:14;17.90;99.90
44643;DHT22;33930;-34.276;150.954;2022-12-20T08:16:43;18.00;99.90
44643;DHT22;33930;-34.276;150.954;2022-12-20T08:19:10;17.80;99.90
44643;DHT22;33930;-34.276;150.954;2022-12-20T08:21:38;17.90;99.90
44643;DHT22;33930;-34.276;150.954;2022-12-20T08:24:05;17.80;99.90
44643;DHT22;33930;-34.276;150.954;2022-12-20T08:26:40;17.70;99.90
44643;DHT22;33930;-34.276;150.954;2022-12-20T08:29:07;17.80;99.90
44643;DHT22;33930;-34.276;150.954;2022-12-20T08:31:39;17.70;99.90
44643;DHT22;33930;-34.276;150.954;2022-12-20T08:34:08;17.60;99.90
44643;DHT22;33930;-34.276;150.954;2022-12-20T08:36:35;17.50;99.90
44643;DHT22;33930;-34.276;150.954;2022-12-20T08:39:06;17.50;99.90
44643;DHT22;33930;-34.276;150.954;2022-12-20T08:41:34;17.50;99.90
44643;DHT22;33930;-34.276;150.954;2022-12-20T08:44:04;17.50;99.90
44643;DHT22;33930;-34.276;150.954;2022-12-20T08:46:31;17.40;99.90
44643;DHT22;33930;-34.276;150.954;2022-12-20T08:48:58;17.40;99.90
44643;DHT22;33930;-34.276;150.954;2022-12-20T08:51:26;17.30;99.90
44643;DHT22;33930;-34.276;150.954;2022-12-20T08:53:54;17.30;99.90
44643;DHT22;33930;-34.276;150.954;2022-12-20T08:56:21;17.30;99.90
44643;DHT22;33930;-34.276;150.954;2022-12-20T08:58:49;17.20;99.90
44643;DHT22;33930;-34.276;150.954;2022-12-20T09:01:18;17.10;99.90
44643;DHT22;33930;-34.276;150.954;2022-12-20T09:03:47;17.00;99.90
44643;DHT22;33930;-34.276;150.954;2022-12-20T09:06:20;16.90;99.90
44643;DHT22;33930;-34.276;150.954;2022-12-20T09:08:48;16.90;99.90
44643;DHT22;33930;-34.276;150.954;2022-12-20T09:11:20;16.90;99.90
44643;DHT22;33930;-34.276;150.954;2022-12-20T09:13:49;16.80;99.90
44643;DHT22;33930;-34.276;150.954;2022-12-20T09:16:25;16.80;99.90
44643;DHT22;33930;-34.276;150.954;2022-12-20T09:18:54;16.80;99.90
44643;DHT22;33930;-34.276;150.954;2022-12-20T09:21:22;16.70;99.90
44643;DHT22;33930;-34.276;150.954;2022-12-20T09:23:51;16.70;99.90
44643;DHT22;33930;-34.276;150.954;2022-12-20T09:26:20;16.70;99.90
44643;DHT22;33930;-34.276;150.954;2022-12-20T09:28:48;16.60;99.90
44643;DHT22;33930;-34.276;150.954;2022-12-20T09:31:21;16.60;99.90
44643;DHT22;33930;-34.276;150.954;2022-12-20T09:33:49;16.60;99.90
44643;DHT22;33930;-34.276;150.954;2022-12-20T09:36:20;16.60;99.90
44643;DHT22;33930;-34.276;150.954;2022-12-20T09:38:48;16.50;99.90
44643;DHT22;33930;-34.276;150.954;2022-12-20T09:44:01;16.50;99.90
44643;DHT22;33930;-34.276;150.954;2022-12-20T09:46:30;16.50;99.90
44643;DHT22;33930;-34.276;150.954;2022-12-20T09:48:58;16.50;99.90
44643;DHT22;33930;-34.276;150.954;2022-12-20T09:59:41;16.60;99.90
44643;DHT22;33930;-34.276;150.954;2022-12-20T10:02:15;16.60;99.90
44643;DHT22;33930;-34.276;150.954;2022-12-20T10:04:46;16.60;99.90
44643;DHT22;33930;-34.276;150.954;2022-12-20T10:07:38;16.60;99.90
44643;DHT22;33930;-34.276;150.954;2022-12-20T10:10:38;16.70;99.90
44643;DHT22;33930;-34.276;150.954;2022-12-20T10:15:51;16.70;99.90
44643;DHT22;33930;-34.276;150.954;2022-12-20T10:18:36;16.80;99.90
44643;DHT22;33930;-34.276;150.954;2022-12-20T10:21:32;16.70;99.90
44643;DHT22;33930;-34.276;150.954;2022-12-20T10:24:12;16.80;99.90
44643;DHT22;33930;-34.276;150.954;2022-12-20T10:26:42;16.80;99.90
44643;DHT22;33930;-34.276;150.954;2022-12-20T10:29:10;16.80;99.90
44643;DHT22;33930;-34.276;150.954;2022-12-20T10:31:38;16.80;99.90
44643;DHT22;33930;-34.276;150.954;2022-12-20T10:34:06;16.70;99.90
44643;DHT22;33930;-34.276;150.954;2022-12-20T10:36:36;16.70;99.90
44643;DHT22;33930;-34.276;150.954;2022-12-20T10:39:06;16.60;99.90
44643;DHT22;33930;-34.276;150.954;2022-12-20T10:41:48;16.70;99.90
44643;DHT22;33930;-34.276;150.954;2022-12-20T10:44:24;16.60;99.90
44643;DHT22;33930;-34.276;150.954;2022-12-20T10:46:57;16.70;99.90
44643;DHT22;33930;-34.276;150.954;2022-12-20T10:49:33;16.60;99.90
44643;DHT22;33930;-34.276;150.954;2022-12-20T10:54:35;16.70;99.90
44643;DHT22;33930;-34.276;150.954;2022-12-20T10:57:24;16.70;99.90
44643;DHT22;33930;-34.276;150.954;2022-12-20T11:00:00;16.60;99.90
44643;DHT22;33930;-34.276;150.954;2022-12-20T11:07:33;16.60;99.90
44643;DHT22;33930;-34.276;150.954;2022-12-20T11:10:25;16.60;99.90
44643;DHT22;33930;-34.276;150.954;2022-12-20T11:12:58;16.70;99.90
44643;DHT22;33930;-34.276;150.954;2022-12-20T11:15:31;16.70;99.90
44643;DHT22;33930;-34.276;150.954;2022-12-20T11:18:09;16.70;99.90
44643;DHT22;33930;-34.276;150.954;2022-12-20T11:20:50;16.70;99.90
44643;DHT22;33930;-34.276;150.954;2022-12-20T11:23:30;16.70;99.90
44643;DHT22;33930;-34.276;150.954;2022-12-20T11:36:05;16.80;99.90
44643;DHT22;33930;-34.276;150.954;2022-12-20T11:38:44;16.80;99.90
44643;DHT22;33930;-34.276;150.954;2022-12-20T11:41:32;16.80;99.90
44643;DHT22;33930;-34.276;150.954;2022-12-20T11:44:16;16.80;99.90
44643;DHT22;33930;-34.276;150.954;2022-12-20T11:52:42;16.90;99.90
44643;DHT22;33930;-34.276;150.954;2022-12-20T11:57:57;17.00;99.90
44643;DHT22;33930;-34.276;150.954;2022-12-20T12:00:26;17.00;99.90
44643;DHT22;33930;-34.276;150.954;2022-12-20T12:05:43;17.00;99.90
44643;DHT22;33930;-34.276;150.954;2022-12-20T12:09:05;17.00;99.90
44643;DHT22;33930;-34.276;150.954;2022-12-20T12:11:26;17.00;99.90
44643;DHT22;33930;-34.276;150.954;2022-12-20T12:13:56;17.00;99.90
44643;DHT22;33930;-34.276;150.954;2022-12-20T12:16:40;17.10;99.90
44643;DHT22;33930;-34.276;150.954;2022-12-20T12:19:10;17.10;99.90
44643;DHT22;33930;-34.276;150.954;2022-12-20T12:21:48;17.00;99.90
44643;DHT22;33930;-34.276;150.954;2022-12-20T12:26:44;17.10;99.90
44643;DHT22;33930;-34.276;150.954;2022-12-20T12:29:19;17.10;99.90
44643;DHT22;33930;-34.276;150.954;2022-12-20T12:46:47;17.00;99.90
44643;DHT22;33930;-34.276;150.954;2022-12-20T12:49:21;17.00;99.90
44643;DHT22;33930;-34.276;150.954;2022-12-20T12:51:53;17.00;99.90
44643;DHT22;33930;-34.276;150.954;2022-12-20T12:56:52;16.90;99.90
44643;DHT22;33930;-34.276;150.954;2022-12-20T13:10:00;16.70;99.90
44643;DHT22;33930;-34.276;150.954;2022-12-20T13:17:49;16.60;99.90
44643;DHT22;33930;-34.276;150.954;2022-12-20T13:20:26;16.50;99.90
44643;DHT22;33930;-34.276;150.954;2022-12-20T13:25:47;16.40;99.90
44643;DHT22;33930;-34.276;150.954;2022-12-20T13:33:47;16.30;99.90
44643;DHT22;33930;-34.276;150.954;2022-12-20T13:36:35;16.20;99.90
44643;DHT22;33930;-34.276;150.954;2022-12-20T13:44:45;16.20;99.90
44643;DHT22;33930;-34.276;150.954;2022-12-20T13:47:27;16.10;99.90
44643;DHT22;33930;-34.276;150.954;2022-12-20T13:50:00;16.10;99.90
44643;DHT22;33930;-34.276;150.954;2022-12-20T13:52:31;16.10;99.90
44643;DHT22;33930;-34.276;150.954;2022-12-20T13:55:01;16.10;99.90
44643;DHT22;33930;-34.276;150.954;2022-12-20T13:57:42;16.10;99.90
44643;DHT22;33930;-34.276;150.954;2022-12-20T14:00:23;16.10;99.90
44643;DHT22;33930;-34.276;150.954;2022-12-20T14:02:54;16.10;99.90
44643;DHT22;33930;-34.276;150.954;2022-12-20T14:08:07;16.10;99.90
44643;DHT22;33930;-34.276;150.954;2022-12-20T14:10:35;16.10;99.90
44643;DHT22;33930;-34.276;150.954;2022-12-20T14:13:02;16.00;99.90
44643;DHT22;33930;-34.276;150.954;2022-12-20T14:15:34;15.90;99.90
44643;DHT22;33930;-34.276;150.954;2022-12-20T14:18:15;15.90;99.90
44643;DHT22;33930;-34.276;150.954;2022-12-20T14:20:44;16.00;99.90
44643;DHT22;33930;-34.276;150.954;2022-12-20T14:23:19;16.00;99.90
44643;DHT22;33930;-34.276;150.954;2022-12-20T14:25:56;16.00;99.90
44643;DHT22;33930;-34.276;150.954;2022-12-20T14:28:50;15.90;99.90
44643;DHT22;33930;-34.276;150.954;2022-12-20T14:36:41;16.00;99.90
44643;DHT22;33930;-34.276;150.954;2022-12-20T14:41:59;16.00;99.90
44643;DHT22;33930;-34.276;150.954;2022-12-20T14:44:28;16.00;99.90
44643;DHT22;33930;-34.276;150.954;2022-12-20T14:47:10;16.10;99.90
44643;DHT22;33930;-34.276;150.954;2022-12-20T14:49:40;16.10;99.90
44643;DHT22;33930;-34.276;150.954;2022-12-20T14:52:20;16.10;99.90
44643;DHT22;33930;-34.276;150.954;2022-12-20T15:08:21;16.20;99.90
44643;DHT22;33930;-34.276;150.954;2022-12-20T15:10:59;16.30;99.90
44643;DHT22;33930;-34.276;150.954;2022-12-20T15:13:40;16.30;99.90
44643;DHT22;33930;-34.276;150.954;2022-12-20T15:16:16;16.30;99.90
44643;DHT22;33930;-34.276;150.954;2022-12-20T15:18:49;16.40;99.90
44643;DHT22;33930;-34.276;150.954;2022-12-20T15:21:36;16.30;99.90
44643;DHT22;33930;-34.276;150.954;2022-12-20T15:24:19;16.40;99.90
44643;DHT22;33930;-34.276;150.954;2022-12-20T15:26:50;16.40;99.90
44643;DHT22;33930;-34.276;150.954;2022-12-20T15:29:24;16.40;99.90
44643;DHT22;33930;-34.276;150.954;2022-12-20T15:32:18;16.40;99.90
44643;DHT22;33930;-34.276;150.954;2022-12-20T15:34:48;16.50;99.90
44643;DHT22;33930;-34.276;150.954;2022-12-20T15:37:16;16.50;99.90
44643;DHT22;33930;-34.276;150.954;2022-12-20T15:39:43;16.50;99.90
44643;DHT22;33930;-34.276;150.954;2022-12-20T15:42:15;16.50;99.90
44643;DHT22;33930;-34.276;150.954;2022-12-20T15:44:43;16.50;99.90
44643;DHT22;33930;-34.276;150.954;2022-12-20T15:47:15;16.50;99.90
44643;DHT22;33930;-34.276;150.954;2022-12-20T15:49:43;16.40;99.90
44643;DHT22;33930;-34.276;150.954;2022-12-20T15:52:20;16.40;99.90
44643;DHT22;33930;-34.276;150.954;2022-12-20T15:54:48;16.40;99.90
44643;DHT22;33930;-34.276;150.954;2022-12-20T15:57:16;16.40;99.90
44643;DHT22;33930;-34.276;150.954;2022-12-20T15:59:43;16.30;99.90
44643;DHT22;33930;-34.276;150.954;2022-12-20T16:04:43;16.30;99.90
44643;DHT22;33930;-34.276;150.954;2022-12-20T16:07:11;16.20;99.90
44643;DHT22;33930;-34.276;150.954;2022-12-20T16:09:38;16.10;99.90
44643;DHT22;33930;-34.276;150.954;2022-12-20T16:12:24;16.10;99.90
44643;DHT22;33930;-34.276;150.954;2022-12-20T16:14:52;16.00;99.90
44643;DHT22;33930;-34.276;150.954;2022-12-20T16:17:19;16.10;99.90
44643;DHT22;33930;-34.276;150.954;2022-12-20T16:19:46;16.00;99.90
44643;DHT22;33930;-34.276;150.954;2022-12-20T16:22:16;16.00;99.90
44643;DHT22;33930;-34.276;150.954;2022-12-20T16:24:44;16.00;99.90
44643;DHT22;33930;-34.276;150.954;2022-12-20T16:27:12;16.00;99.90
44643;DHT22;33930;-34.276;150.954;2022-12-20T16:29:39;16.00;99.90
44643;DHT22;33930;-34.276;150.954;2022-12-20T16:32:15;15.90;99.90
44643;DHT22;33930;-34.276;150.954;2022-12-20T16:34:43;16.00;99.90
44643;DHT22;33930;-34.276;150.954;2022-12-20T16:37:11;16.00;99.90
44643;DHT22;33930;-34.276;150.954;2022-12-20T16:39:39;15.90;99.90
44643;DHT22;33930;-34.276;150.954;2022-12-20T16:42:17;15.90;99.90
44643;DHT22;33930;-34.276;150.954;2022-12-20T16:44:51;15.80;99.90
44643;DHT22;33930;-34.276;150.954;2022-12-20T16:47:18;15.80;99.90
44643;DHT22;33930;-34.276;150.954;2022-12-20T16:49:46;15.80;99.90
44643;DHT22;33930;-34.276;150.954;2022-12-20T16:52:17;15.80;99.90
44643;DHT22;33930;-34.276;150.954;2022-12-20T16:54:45;15.80;99.90
44643;DHT22;33930;-34.276;150.954;2022-12-20T16:57:12;15.80;99.90
44643;DHT22;33930;-34.276;150.954;2022-12-20T16:59:39;15.70;99.90
44643;DHT22;33930;-34.276;150.954;2022-12-20T17:04:50;15.80;99.90
44643;DHT22;33930;-34.276;150.954;2022-12-20T17:07:18;15.80;99.90
44643;DHT22;33930;-34.276;150.954;2022-12-20T17:09:45;15.80;99.90
44643;DHT22;33930;-34.276;150.954;2022-12-20T17:12:17;15.80;99.90
44643;DHT22;33930;-34.276;150.954;2022-12-20T17:14:44;15.80;99.90
44643;DHT22;33930;-34.276;150.954;2022-12-20T17:17:13;15.70;99.90
44643;DHT22;33930;-34.276;150.954;2022-12-20T17:19:40;15.80;99.90
44643;DHT22;33930;-34.276;150.954;2022-12-20T17:22:10;15.70;99.90
44643;DHT22;33930;-34.276;150.954;2022-12-20T17:24:38;15.80;99.90
44643;DHT22;33930;-34.276;150.954;2022-12-20T17:27:05;15.80;99.90
44643;DHT22;33930;-34.276;150.954;2022-12-20T17:29:32;15.80;99.90
44643;DHT22;33930;-34.276;150.954;2022-12-20T17:32:00;15.80;99.90